sensor_id;sensor_type;location;lat;lon;timestamp;temperature;humidity
32334;DHT22;18810;53.040;8.850;2023-04-24T00:01:28;11.70;99.90
32334;DHT22;18810;53.040;8.850;2023-04-24T00:03:55;11.60;99.90
32334;DHT22;18810;53.040;8.850;2023-04-24T00:06:28;11.70;99.90
32334;DHT22;18810;53.040;8.850;2023-04-24T00:09:00;11.70;99.90
32334;DHT22;18810;53.040;8.850;2023-04-24T00:11:26;11.70;99.90
32334;DHT22;18810;53.040;8.850;2023-04-24T00:13:52;11.70;99.90
32334;DHT22;18810;53.040;8.850;2023-04-24T00:16:18;11.70;99.90
32334;DHT22;18810;53.040;8.850;2023-04-24T00:18:44;11.70;99.90
32334;DHT22;18810;53.040;8.850;2023-04-24T00:21:14;11.70;99.90
32334;DHT22;18810;53.040;8.850;2023-04-24T00:23:40;11.60;99.90
32334;DHT22;18810;53.040;8.850;2023-04-24T00:26:06;11.50;99.90
32334;DHT22;18810;53.040;8.850;2023-04-24T00:28:31;11.40;99.90
32334;DHT22;18810;53.040;8.850;2023-04-24T00:30:57;11.40;99.90
32334;DHT22;18810;53.040;8.850;2023-04-24T00:33:23;11.40;99.90
32334;DHT22;18810;53.040;8.850;2023-04-24T00:35:48;11.40;99.90
32334;DHT22;18810;53.040;8.850;2023-04-24T00:38:14;11.50;99.90
32334;DHT22;18810;53.040;8.850;2023-04-24T00:40:40;11.60;99.90
32334;DHT22;18810;53.040;8.850;2023-04-24T00:43:05;11.70;99.90
32334;DHT22;18810;53.040;8.850;2023-04-24T00:45:31;11.80;99.90
32334;DHT22;18810;53.040;8.850;2023-04-24T00:47:57;11.80;99.90
32334;DHT22;18810;53.040;8.850;2023-04-24T00:50:24;11.80;99.90
32334;DHT22;18810;53.040;8.850;2023-04-24T00:52:50;11.80;99.90
32334;DHT22;18810;53.040;8.850;2023-04-24T00:55:17;11.80;99.90
32334;DHT22;18810;53.040;8.850;2023-04-24T00:57:43;11.70;99.90
32334;DHT22;18810;53.040;8.850;2023-04-24T01:00:09;11.70;99.90
32334;DHT22;18810;53.040;8.850;2023-04-24T01:02:40;11.70;99.90
32334;DHT22;18810;53.040;8.850;2023-04-24T01:05:09;11.70;99.90
32334;DHT22;18810;53.040;8.850;2023-04-24T01:07:35;11.60;99.90
32334;DHT22;18810;53.040;8.850;2023-04-24T01:10:02;11.60;99.90
32334;DHT22;18810;53.040;8.850;2023-04-24T01:12:28;11.50;99.90
32334;DHT22;18810;53.040;8.850;2023-04-24T01:14:54;11.50;99.90
32334;DHT22;18810;53.040;8.850;2023-04-24T01:17:22;11.60;99.90
32334;DHT22;18810;53.040;8.850;2023-04-24T01:19:48;11.50;99.90
32334;DHT22;18810;53.040;8.850;2023-04-24T01:22:14;11.50;99.90
32334;DHT22;18810;53.040;8.850;2023-04-24T01:24:41;11.60;99.90
32334;DHT22;18810;53.040;8.850;2023-04-24T01:27:08;11.70;99.90
32334;DHT22;18810;53.040;8.850;2023-04-24T01:29:34;11.70;99.90
32334;DHT22;18810;53.040;8.850;2023-04-24T01:32:00;11.70;99.90
32334;DHT22;18810;53.040;8.850;2023-04-24T01:34:26;11.70;99.90
32334;DHT22;18810;53.040;8.850;2023-04-24T01:36:52;11.80;99.90
32334;DHT22;18810;53.040;8.850;2023-04-24T01:39:18;11.80;99.90
32334;DHT22;18810;53.040;8.850;2023-04-24T01:41:46;11.80;99.90
32334;DHT22;18810;53.040;8.850;2023-04-24T01:44:12;11.80;99.90
32334;DHT22;18810;53.040;8.850;2023-04-24T01:46:38;11.80;99.90
32334;DHT22;18810;53.040;8.850;2023-04-24T01:49:04;11.90;99.90
32334;DHT22;18810;53.040;8.850;2023-04-24T01:51:29;11.80;99.90
32334;DHT22;18810;53.040;8.850;2023-04-24T01:53:55;11.80;99.90
32334;DHT22;18810;53.040;8.850;2023-04-24T01:56:22;11.80;99.90
32334;DHT22;18810;53.040;8.850;2023-04-24T01:58:49;11.80;99.90
32334;DHT22;18810;53.040;8.850;2023-04-24T02:01:20;11.80;99.90
32334;DHT22;18810;53.040;8.850;2023-04-24T02:03:46;11.70;99.90
32334;DHT22;18810;53.040;8.850;2023-04-24T02:06:12;11.80;99.90
32334;DHT22;18810;53.040;8.850;2023-04-24T02:08:37;11.80;99.90
32334;DHT22;18810;53.040;8.850;2023-04-24T02:11:03;11.70;99.90
32334;DHT22;18810;53.040;8.850;2023-04-24T02:13:29;11.70;99.90
32334;DHT22;18810;53.040;8.850;2023-04-24T02:15:55;11.70;99.90
32334;DHT22;18810;53.040;8.850;2023-04-24T02:18:20;11.80;99.90
32334;DHT22;18810;53.040;8.850;2023-04-24T02:20:48;11.70;99.90
32334;DHT22;18810;53.040;8.850;2023-04-24T02:23:13;11.70;99.90
32334;DHT22;18810;53.040;8.850;2023-04-24T02:25:40;11.60;99.90
32334;DHT22;18810;53.040;8.850;2023-04-24T02:28:05;11.60;99.90
32334;DHT22;18810;53.040;8.850;2023-04-24T02:30:31;11.70;99.90
32334;DHT22;18810;53.040;8.850;2023-04-24T02:32:57;11.70;99.90
32334;DHT22;18810;53.040;8.850;2023-04-24T02:35:23;11.60;99.90
32334;DHT22;18810;53.040;8.850;2023-04-24T02:37:48;11.60;99.90
32334;DHT22;18810;53.040;8.850;2023-04-24T02:40:14;11.60;99.90
32334;DHT22;18810;53.040;8.850;2023-04-24T02:42:40;11.70;99.90
32334;DHT22;18810;53.040;8.850;2023-04-24T02:45:06;11.70;99.90
32334;DHT22;18810;53.040;8.850;2023-04-24T02:47:32;11.80;99.90
32334;DHT22;18810;53.040;8.850;2023-04-24T02:49:58;11.80;99.90
32334;DHT22;18810;53.040;8.850;2023-04-24T02:52:23;11.70;99.90
32334;DHT22;18810;53.040;8.850;2023-04-24T02:54:49;11.70;99.90
32334;DHT22;18810;53.040;8.850;2023-04-24T02:57:15;11.70;99.90
32334;DHT22;18810;53.040;8.850;2023-04-24T02:59:41;11.70;99.90
32334;DHT22;18810;53.040;8.850;2023-04-24T03:02:06;11.70;99.90
32334;DHT22;18810;53.040;8.850;2023-04-24T03:04:32;11.70;99.90
32334;DHT22;18810;53.040;8.850;2023-04-24T03:06:58;11.70;99.90
32334;DHT22;18810;53.040;8.850;2023-04-24T03:09:24;11.70;99.90
32334;DHT22;18810;53.040;8.850;2023-04-24T03:11:50;11.70;99.90
32334;DHT22;18810;53.040;8.850;2023-04-24T03:14:16;11.80;99.90
32334;DHT22;18810;53.040;8.850;2023-04-24T03:16:42;11.70;99.90
32334;DHT22;18810;53.040;8.850;2023-04-24T03:19:08;11.60;99.90
32334;DHT22;18810;53.040;8.850;2023-04-24T03:21:33;11.60;99.90
32334;DHT22;18810;53.040;8.850;2023-04-24T03:24:01;11.70;99.90
32334;DHT22;18810;53.040;8.850;2023-04-24T03:26:27;11.70;99.90
32334;DHT22;18810;53.040;8.850;2023-04-24T03:28:53;11.80;99.90
32334;DHT22;18810;53.040;8.850;2023-04-24T03:31:19;11.70;99.90
32334;DHT22;18810;53.040;8.850;2023-04-24T03:33:46;11.70;99.90
32334;DHT22;18810;53.040;8.850;2023-04-24T03:36:12;11.60;99.90
32334;DHT22;18810;53.040;8.850;2023-04-24T03:38:38;11.70;99.90
32334;DHT22;18810;53.040;8.850;2023-04-24T03:41:03;11.70;99.90
32334;DHT22;18810;53.040;8.850;2023-04-24T03:43:29;11.70;99.90
32334;DHT22;18810;53.040;8.850;2023-04-24T03:45:55;11.70;99.90
32334;DHT22;18810;53.040;8.850;2023-04-24T03:48:20;11.70;99.90
32334;DHT22;18810;53.040;8.850;2023-04-24T03:50:46;11.70;99.90
32334;DHT22;18810;53.040;8.850;2023-04-24T03:53:12;11.70;99.90
32334;DHT22;18810;53.040;8.850;2023-04-24T03:55:38;11.70;99.90
32334;DHT22;18810;53.040;8.850;2023-04-24T03:58:03;11.70;99.90
32334;DHT22;18810;53.040;8.850;2023-04-24T04:00:29;11.60;99.90
32334;DHT22;18810;53.040;8.850;2023-04-24T04:02:58;11.70;99.90
32334;DHT22;18810;53.040;8.850;2023-04-24T04:05:24;11.60;99.90
32334;DHT22;18810;53.040;8.850;2023-04-24T04:07:50;11.60;99.90
32334;DHT22;18810;53.040;8.850;2023-04-24T04:10:16;11.60;99.90
32334;DHT22;18810;53.040;8.850;2023-04-24T04:12:42;11.60;99.90
32334;DHT22;18810;53.040;8.850;2023-04-24T04:15:08;11.60;99.90
32334;DHT22;18810;53.040;8.850;2023-04-24T04:17:34;11.50;99.90
32334;DHT22;18810;53.040;8.850;2023-04-24T04:20:00;11.50;99.90
32334;DHT22;18810;53.040;8.850;2023-04-24T04:22:26;11.60;99.90
32334;DHT22;18810;53.040;8.850;2023-04-24T04:24:52;11.60;99.90
32334;DHT22;18810;53.040;8.850;2023-04-24T04:27:17;11.60;99.90
32334;DHT22;18810;53.040;8.850;2023-04-24T04:29:44;11.60;99.90
32334;DHT22;18810;53.040;8.850;2023-04-24T04:32:10;11.50;99.90
32334;DHT22;18810;53.040;8.850;2023-04-24T04:34:35;11.60;99.90
32334;DHT22;18810;53.040;8.850;2023-04-24T04:37:03;11.50;99.90
32334;DHT22;18810;53.040;8.850;2023-04-24T04:39:29;11.50;99.90
32334;DHT22;18810;53.040;8.850;2023-04-24T04:41:55;11.50;99.90
32334;DHT22;18810;53.040;8.850;2023-04-24T04:44:21;11.50;99.90
32334;DHT22;18810;53.040;8.850;2023-04-24T04:46:47;11.60;99.90
32334;DHT22;18810;53.040;8.850;2023-04-24T04:49:13;11.60;99.90
32334;DHT22;18810;53.040;8.850;2023-04-24T04:51:42;11.60;99.90
32334;DHT22;18810;53.040;8.850;2023-04-24T04:54:07;11.70;99.90
32334;DHT22;18810;53.040;8.850;2023-04-24T04:56:33;11.60;99.90
32334;DHT22;18810;53.040;8.850;2023-04-24T04:58:59;11.50;99.90
32334;DHT22;18810;53.040;8.850;2023-04-24T05:01:25;11.60;99.90
32334;DHT22;18810;53.040;8.850;2023-04-24T05:03:53;11.70;99.90
32334;DHT22;18810;53.040;8.850;2023-04-24T05:06:18;11.70;99.90
32334;DHT22;18810;53.040;8.850;2023-04-24T05:08:44;11.60;99.90
32334;DHT22;18810;53.040;8.850;2023-04-24T05:11:10;11.70;99.90
32334;DHT22;18810;53.040;8.850;2023-04-24T05:13:36;11.70;99.90
32334;DHT22;18810;53.040;8.850;2023-04-24T05:16:01;11.80;99.90
32334;DHT22;18810;53.040;8.850;2023-04-24T05:18:27;11.70;99.90
32334;DHT22;18810;53.040;8.850;2023-04-24T05:20:53;11.70;99.90
32334;DHT22;18810;53.040;8.850;2023-04-24T05:23:18;11.60;99.90
32334;DHT22;18810;53.040;8.850;2023-04-24T05:25:44;11.60;99.90
32334;DHT22;18810;53.040;8.850;2023-04-24T05:28:11;11.60;99.90
32334;DHT22;18810;53.040;8.850;2023-04-24T05:30:37;11.70;99.90
32334;DHT22;18810;53.040;8.850;2023-04-24T05:33:02;11.70;99.90
32334;DHT22;18810;53.040;8.850;2023-04-24T05:35:28;11.70;99.90
32334;DHT22;18810;53.040;8.850;2023-04-24T05:37:54;11.70;99.90
32334;DHT22;18810;53.040;8.850;2023-04-24T05:40:20;11.70;99.90
32334;DHT22;18810;53.040;8.850;2023-04-24T05:42:45;11.70;99.90
32334;DHT22;18810;53.040;8.850;2023-04-24T05:45:11;11.70;99.90
32334;DHT22;18810;53.040;8.850;2023-04-24T05:47:42;11.70;99.90
32334;DHT22;18810;53.040;8.850;2023-04-24T05:50:09;11.90;99.90
32334;DHT22;18810;53.040;8.850;2023-04-24T05:52:35;12.10;99.90
32334;DHT22;18810;53.040;8.850;2023-04-24T05:55:01;12.20;99.90
32334;DHT22;18810;53.040;8.850;2023-04-24T05:57:26;12.20;99.90
32334;DHT22;18810;53.040;8.850;2023-04-24T05:59:52;12.20;99.90
32334;DHT22;18810;53.040;8.850;2023-04-24T06:02:18;12.30;99.90
32334;DHT22;18810;53.040;8.850;2023-04-24T06:04:44;12.30;99.90
32334;DHT22;18810;53.040;8.850;2023-04-24T06:07:13;12.40;99.90
32334;DHT22;18810;53.040;8.850;2023-04-24T06:09:39;12.40;99.90
32334;DHT22;18810;53.040;8.850;2023-04-24T06:12:05;12.30;99.90
32334;DHT22;18810;53.040;8.850;2023-04-24T06:14:32;12.10;99.90
32334;DHT22;18810;53.040;8.850;2023-04-24T06:16:58;12.00;99.90
32334;DHT22;18810;53.040;8.850;2023-04-24T06:19:24;12.00;99.90
32334;DHT22;18810;53.040;8.850;2023-04-24T06:21:49;12.10;99.90
32334;DHT22;18810;53.040;8.850;2023-04-24T06:24:15;12.00;99.90
32334;DHT22;18810;53.040;8.850;2023-04-24T06:26:42;12.10;99.90
32334;DHT22;18810;53.040;8.850;2023-04-24T06:29:08;12.30;99.90
32334;DHT22;18810;53.040;8.850;2023-04-24T06:31:33;12.30;99.90
32334;DHT22;18810;53.040;8.850;2023-04-24T06:34:03;12.10;99.90
32334;DHT22;18810;53.040;8.850;2023-04-24T06:36:28;12.20;99.90
32334;DHT22;18810;53.040;8.850;2023-04-24T06:38:54;12.40;99.90
32334;DHT22;18810;53.040;8.850;2023-04-24T06:41:20;12.50;99.90
32334;DHT22;18810;53.040;8.850;2023-04-24T06:43:46;12.70;99.90
32334;DHT22;18810;53.040;8.850;2023-04-24T06:46:12;12.90;99.90
32334;DHT22;18810;53.040;8.850;2023-04-24T06:48:38;13.00;99.90
32334;DHT22;18810;53.040;8.850;2023-04-24T06:51:04;12.90;99.90
32334;DHT22;18810;53.040;8.850;2023-04-24T06:53:30;13.00;99.90
32334;DHT22;18810;53.040;8.850;2023-04-24T06:55:56;12.90;99.90
32334;DHT22;18810;53.040;8.850;2023-04-24T06:58:22;12.80;99.90
32334;DHT22;18810;53.040;8.850;2023-04-24T07:00:47;12.60;99.90
32334;DHT22;18810;53.040;8.850;2023-04-24T07:03:13;12.70;99.90
32334;DHT22;18810;53.040;8.850;2023-04-24T07:05:39;12.50;99.90
32334;DHT22;18810;53.040;8.850;2023-04-24T07:08:05;12.30;99.90
32334;DHT22;18810;53.040;8.850;2023-04-24T07:10:32;12.50;99.90
32334;DHT22;18810;53.040;8.850;2023-04-24T07:13:01;12.60;99.90
32334;DHT22;18810;53.040;8.850;2023-04-24T07:15:26;13.00;99.90
32334;DHT22;18810;53.040;8.850;2023-04-24T07:17:52;13.30;99.90
32334;DHT22;18810;53.040;8.850;2023-04-24T07:20:18;13.40;99.90
32334;DHT22;18810;53.040;8.850;2023-04-24T07:22:44;13.40;99.90
32334;DHT22;18810;53.040;8.850;2023-04-24T07:25:09;13.50;99.90
32334;DHT22;18810;53.040;8.850;2023-04-24T07:27:35;13.20;99.90
32334;DHT22;18810;53.040;8.850;2023-04-24T07:30:02;13.20;99.90
32334;DHT22;18810;53.040;8.850;2023-04-24T07:32:29;13.30;99.90
32334;DHT22;18810;53.040;8.850;2023-04-24T07:34:55;13.30;99.90
32334;DHT22;18810;53.040;8.850;2023-04-24T07:37:21;13.20;99.90
32334;DHT22;18810;53.040;8.850;2023-04-24T07:39:46;12.90;99.90
32334;DHT22;18810;53.040;8.850;2023-04-24T07:42:12;12.70;99.90
32334;DHT22;18810;53.040;8.850;2023-04-24T07:44:38;12.70;99.90
32334;DHT22;18810;53.040;8.850;2023-04-24T07:47:04;12.60;99.90
32334;DHT22;18810;53.040;8.850;2023-04-24T07:49:30;12.90;99.90
32334;DHT22;18810;53.040;8.850;2023-04-24T07:51:59;13.20;99.90
32334;DHT22;18810;53.040;8.850;2023-04-24T07:54:27;13.30;99.90
32334;DHT22;18810;53.040;8.850;2023-04-24T07:56:53;13.10;99.90
32334;DHT22;18810;53.040;8.850;2023-04-24T07:59:19;12.80;99.90
32334;DHT22;18810;53.040;8.850;2023-04-24T08:01:45;12.60;99.90
32334;DHT22;18810;53.040;8.850;2023-04-24T08:04:11;12.60;99.90
32334;DHT22;18810;53.040;8.850;2023-04-24T08:06:36;12.50;99.90
32334;DHT22;18810;53.040;8.850;2023-04-24T08:09:02;12.50;99.90
32334;DHT22;18810;53.040;8.850;2023-04-24T08:11:28;12.50;99.90
32334;DHT22;18810;53.040;8.850;2023-04-24T08:13:54;12.60;99.90
32334;DHT22;18810;53.040;8.850;2023-04-24T08:16:20;12.80;99.90
32334;DHT22;18810;53.040;8.850;2023-04-24T08:18:46;12.80;99.90
32334;DHT22;18810;53.040;8.850;2023-04-24T08:21:11;12.70;99.90
32334;DHT22;18810;53.040;8.850;2023-04-24T08:23:42;12.80;99.90
32334;DHT22;18810;53.040;8.850;2023-04-24T08:26:08;13.00;99.90
32334;DHT22;18810;53.040;8.850;2023-04-24T08:28:34;13.00;99.90
32334;DHT22;18810;53.040;8.850;2023-04-24T08:31:00;13.00;99.90
32334;DHT22;18810;53.040;8.850;2023-04-24T08:33:26;12.90;99.90
32334;DHT22;18810;53.040;8.850;2023-04-24T08:35:52;12.90;99.90
32334;DHT22;18810;53.040;8.850;2023-04-24T08:38:18;13.40;99.90
32334;DHT22;18810;53.040;8.850;2023-04-24T08:40:44;13.20;99.90
32334;DHT22;18810;53.040;8.850;2023-04-24T08:43:12;13.40;99.90
32334;DHT22;18810;53.040;8.850;2023-04-24T08:45:38;13.70;99.90
32334;DHT22;18810;53.040;8.850;2023-04-24T08:48:04;13.90;99.90
32334;DHT22;18810;53.040;8.850;2023-04-24T08:50:32;13.90;99.90
32334;DHT22;18810;53.040;8.850;2023-04-24T08:52:58;14.00;99.90
32334;DHT22;18810;53.040;8.850;2023-04-24T08:55:25;14.20;99.90
32334;DHT22;18810;53.040;8.850;2023-04-24T08:57:52;14.30;99.90
32334;DHT22;18810;53.040;8.850;2023-04-24T09:00:20;14.00;99.90
32334;DHT22;18810;53.040;8.850;2023-04-24T09:02:49;13.90;99.90
32334;DHT22;18810;53.040;8.850;2023-04-24T09:05:17;14.30;99.90
32334;DHT22;18810;53.040;8.850;2023-04-24T09:07:47;14.50;99.90
32334;DHT22;18810;53.040;8.850;2023-04-24T09:10:14;14.30;99.90
32334;DHT22;18810;53.040;8.850;2023-04-24T09:12:41;13.90;99.90
32334;DHT22;18810;53.040;8.850;2023-04-24T09:15:08;13.50;99.90
32334;DHT22;18810;53.040;8.850;2023-04-24T09:17:34;13.30;99.90
32334;DHT22;18810;53.040;8.850;2023-04-24T09:20:00;13.20;99.90
32334;DHT22;18810;53.040;8.850;2023-04-24T09:22:30;12.90;99.90
32334;DHT22;18810;53.040;8.850;2023-04-24T09:25:06;12.70;99.90
32334;DHT22;18810;53.040;8.850;2023-04-24T09:27:33;12.90;99.90
32334;DHT22;18810;53.040;8.850;2023-04-24T09:29:59;13.20;99.90
32334;DHT22;18810;53.040;8.850;2023-04-24T09:32:25;13.20;99.90
32334;DHT22;18810;53.040;8.850;2023-04-24T09:35:11;12.80;99.90
32334;DHT22;18810;53.040;8.850;2023-04-24T09:37:42;12.60;99.90
32334;DHT22;18810;53.040;8.850;2023-04-24T09:40:08;12.60;99.90
32334;DHT22;18810;53.040;8.850;2023-04-24T09:42:36;12.70;99.90
32334;DHT22;18810;53.040;8.850;2023-04-24T09:45:02;12.70;99.90
32334;DHT22;18810;53.040;8.850;2023-04-24T09:47:27;12.60;99.90
32334;DHT22;18810;53.040;8.850;2023-04-24T09:50:09;12.70;99.90
32334;DHT22;18810;53.040;8.850;2023-04-24T09:52:35;12.60;99.90
32334;DHT22;18810;53.040;8.850;2023-04-24T09:55:01;12.90;99.90
32334;DHT22;18810;53.040;8.850;2023-04-24T09:57:26;13.10;99.90
32334;DHT22;18810;53.040;8.850;2023-04-24T09:59:53;13.10;99.90
32334;DHT22;18810;53.040;8.850;2023-04-24T10:02:20;13.00;99.90
32334;DHT22;18810;53.040;8.850;2023-04-24T10:04:56;13.10;99.90
32334;DHT22;18810;53.040;8.850;2023-04-24T10:07:22;13.30;99.90
32334;DHT22;18810;53.040;8.850;2023-04-24T10:09:51;13.60;99.90
32334;DHT22;18810;53.040;8.850;2023-04-24T10:12:17;13.30;99.90
32334;DHT22;18810;53.040;8.850;2023-04-24T10:14:45;13.30;99.90
32334;DHT22;18810;53.040;8.850;2023-04-24T10:17:12;13.10;99.90
32334;DHT22;18810;53.040;8.850;2023-04-24T10:19:38;13.20;99.90
32334;DHT22;18810;53.040;8.850;2023-04-24T10:22:06;13.20;99.90
32334;DHT22;18810;53.040;8.850;2023-04-24T10:24:33;13.30;99.90
32334;DHT22;18810;53.040;8.850;2023-04-24T10:27:01;13.10;99.90
32334;DHT22;18810;53.040;8.850;2023-04-24T10:29:30;12.90;99.90
32334;DHT22;18810;53.040;8.850;2023-04-24T10:31:57;12.80;99.90
32334;DHT22;18810;53.040;8.850;2023-04-24T10:34:23;12.70;99.90
32334;DHT22;18810;53.040;8.850;2023-04-24T10:36:51;12.70;99.90
32334;DHT22;18810;53.040;8.850;2023-04-24T10:39:18;12.40;99.90
32334;DHT22;18810;53.040;8.850;2023-04-24T10:41:45;12.40;99.90
32334;DHT22;18810;53.040;8.850;2023-04-24T10:44:15;12.40;99.90
32334;DHT22;18810;53.040;8.850;2023-04-24T10:46:45;12.50;99.90
32334;DHT22;18810;53.040;8.850;2023-04-24T10:49:11;12.70;99.90
32334;DHT22;18810;53.040;8.850;2023-04-24T10:51:48;12.90;99.90
32334;DHT22;18810;53.040;8.850;2023-04-24T10:54:44;13.00;99.90
32334;DHT22;18810;53.040;8.850;2023-04-24T10:59:47;12.90;99.90
32334;DHT22;18810;53.040;8.850;2023-04-24T11:02:17;12.90;99.90
32334;DHT22;18810;53.040;8.850;2023-04-24T11:04:44;13.10;99.90
32334;DHT22;18810;53.040;8.850;2023-04-24T11:07:10;13.20;99.90
32334;DHT22;18810;53.040;8.850;2023-04-24T11:09:37;12.70;99.90
32334;DHT22;18810;53.040;8.850;2023-04-24T11:12:07;13.00;99.90
32334;DHT22;18810;53.040;8.850;2023-04-24T11:17:32;13.00;99.90
32334;DHT22;18810;53.040;8.850;2023-04-24T11:20:06;13.60;99.90
32334;DHT22;18810;53.040;8.850;2023-04-24T11:22:36;13.90;99.90
32334;DHT22;18810;53.040;8.850;2023-04-24T11:25:03;13.70;99.90
32334;DHT22;18810;53.040;8.850;2023-04-24T11:27:31;13.40;99.90
32334;DHT22;18810;53.040;8.850;2023-04-24T11:29:59;13.10;99.90
32334;DHT22;18810;53.040;8.850;2023-04-24T11:35:06;12.60;99.90
32334;DHT22;18810;53.040;8.850;2023-04-24T11:37:43;12.50;99.90
32334;DHT22;18810;53.040;8.850;2023-04-24T11:40:12;12.40;99.90
32334;DHT22;18810;53.040;8.850;2023-04-24T11:42:41;12.40;99.90
32334;DHT22;18810;53.040;8.850;2023-04-24T11:50:00;12.50;99.90
32334;DHT22;18810;53.040;8.850;2023-04-24T11:52:27;12.40;99.90
32334;DHT22;18810;53.040;8.850;2023-04-24T11:57:20;12.40;99.90
32334;DHT22;18810;53.040;8.850;2023-04-24T12:02:23;12.40;99.90
32334;DHT22;18810;53.040;8.850;2023-04-24T12:09:46;12.30;99.90
32334;DHT22;18810;53.040;8.850;2023-04-24T12:12:13;12.50;99.90
32334;DHT22;18810;53.040;8.850;2023-04-24T12:15:07;12.40;99.90
32334;DHT22;18810;53.040;8.850;2023-04-24T12:17:33;12.50;99.90
32334;DHT22;18810;53.040;8.850;2023-04-24T12:20:04;12.40;99.90
32334;DHT22;18810;53.040;8.850;2023-04-24T12:22:51;11.90;99.90
32334;DHT22;18810;53.040;8.850;2023-04-24T12:27:46;11.80;99.90
32334;DHT22;18810;53.040;8.850;2023-04-24T12:30:16;11.80;99.90
32334;DHT22;18810;53.040;8.850;2023-04-24T12:32:46;11.90;99.90
32334;DHT22;18810;53.040;8.850;2023-04-24T12:40:12;12.00;99.90
32334;DHT22;18810;53.040;8.850;2023-04-24T12:43:19;12.00;99.90
32334;DHT22;18810;53.040;8.850;2023-04-24T12:45:47;11.60;99.90
32334;DHT22;18810;53.040;8.850;2023-04-24T12:50:43;11.20;99.90
32334;DHT22;18810;53.040;8.850;2023-04-24T13:15:06;9.50;99.90
32334;DHT22;18810;53.040;8.850;2023-04-24T13:22:24;9.40;99.90
32334;DHT22;18810;53.040;8.850;2023-04-24T13:24:50;9.30;99.90
32334;DHT22;18810;53.040;8.850;2023-04-24T13:27:16;9.30;99.90
32334;DHT22;18810;53.040;8.850;2023-04-24T13:32:08;9.20;99.90
32334;DHT22;18810;53.040;8.850;2023-04-24T13:44:21;9.10;99.90
32334;DHT22;18810;53.040;8.850;2023-04-24T13:46:50;9.00;99.90
32334;DHT22;18810;53.040;8.850;2023-04-24T14:03:55;8.90;99.90
32334;DHT22;18810;53.040;8.850;2023-04-24T14:06:21;8.90;99.90
32334;DHT22;18810;53.040;8.850;2023-04-24T14:08:48;8.90;99.90
32334;DHT22;18810;53.040;8.850;2023-04-24T14:18:33;8.70;99.90
32334;DHT22;18810;53.040;8.850;2023-04-24T14:42:57;8.40;99.90
32334;DHT22;18810;53.040;8.850;2023-04-24T14:45:24;8.40;99.90
32334;DHT22;18810;53.040;8.850;2023-04-24T14:50:16;8.60;99.90
32334;DHT22;18810;53.040;8.850;2023-04-24T14:52:41;8.60;99.90
32334;DHT22;18810;53.040;8.850;2023-04-24T15:00:01;8.70;99.90
32334;DHT22;18810;53.040;8.850;2023-04-24T15:14:38;8.90;99.90
32334;DHT22;18810;53.040;8.850;2023-04-24T15:17:04;8.90;99.90
32334;DHT22;18810;53.040;8.850;2023-04-24T15:34:06;9.20;99.90
32334;DHT22;18810;53.040;8.850;2023-04-24T15:36:32;9.20;99.90
32334;DHT22;18810;53.040;8.850;2023-04-24T15:41:24;9.00;99.90
32334;DHT22;18810;53.040;8.850;2023-04-24T15:43:49;9.10;99.90
32334;DHT22;18810;53.040;8.850;2023-04-24T15:46:15;9.00;99.90
32334;DHT22;18810;53.040;8.850;2023-04-24T15:48:44;9.00;99.90
32334;DHT22;18810;53.040;8.850;2023-04-24T15:56:02;9.00;99.90
32334;DHT22;18810;53.040;8.850;2023-04-24T15:58:28;9.10;99.90
32334;DHT22;18810;53.040;8.850;2023-04-24T16:10:44;9.00;99.90
32334;DHT22;18810;53.040;8.850;2023-04-24T16:13:11;9.10;99.90
32334;DHT22;18810;53.040;8.850;2023-04-24T16:15:38;9.20;99.90
32334;DHT22;18810;53.040;8.850;2023-04-24T16:18:04;9.20;99.90
32334;DHT22;18810;53.040;8.850;2023-04-24T16:25:22;9.00;99.90
32334;DHT22;18810;53.040;8.850;2023-04-24T16:27:48;8.80;99.90
32334;DHT22;18810;53.040;8.850;2023-04-24T16:37:34;8.90;99.90
32334;DHT22;18810;53.040;8.850;2023-04-24T16:57:04;8.70;99.90
32334;DHT22;18810;53.040;8.850;2023-04-24T16:59:30;8.60;99.90
32334;DHT22;18810;53.040;8.850;2023-04-24T17:01:59;8.60;99.90
32334;DHT22;18810;53.040;8.850;2023-04-24T17:04:25;8.60;99.90
32334;DHT22;18810;53.040;8.850;2023-04-24T17:09:17;8.50;99.90
32334;DHT22;18810;53.040;8.850;2023-04-24T17:11:43;8.40;99.90
32334;DHT22;18810;53.040;8.850;2023-04-24T17:14:08;8.50;99.90
32334;DHT22;18810;53.040;8.850;2023-04-24T17:16:35;8.60;99.90
32334;DHT22;18810;53.040;8.850;2023-04-24T17:19:01;8.70;99.90
32334;DHT22;18810;53.040;8.850;2023-04-24T17:21:27;8.60;99.90
32334;DHT22;18810;53.040;8.850;2023-04-24T17:23:53;8.60;99.90
32334;DHT22;18810;53.040;8.850;2023-04-24T17:26:19;8.60;99.90
32334;DHT22;18810;53.040;8.850;2023-04-24T17:28:45;8.50;99.90
32334;DHT22;18810;53.040;8.850;2023-04-24T17:31:10;8.40;99.90
32334;DHT22;18810;53.040;8.850;2023-04-24T17:33:36;8.40;99.90
32334;DHT22;18810;53.040;8.850;2023-04-24T17:36:01;8.40;99.90
32334;DHT22;18810;53.040;8.850;2023-04-24T17:38:28;8.40;99.90
32334;DHT22;18810;53.040;8.850;2023-04-24T17:40:54;8.30;99.90
32334;DHT22;18810;53.040;8.850;2023-04-24T17:43:21;8.30;99.90
32334;DHT22;18810;53.040;8.850;2023-04-24T17:45:51;8.30;99.90
32334;DHT22;18810;53.040;8.850;2023-04-24T17:48:18;8.30;99.90
32334;DHT22;18810;53.040;8.850;2023-04-24T17:50:44;8.20;99.90
32334;DHT22;18810;53.040;8.850;2023-04-24T17:53:11;8.20;99.90
32334;DHT22;18810;53.040;8.850;2023-04-24T17:55:40;8.30;99.90
32334;DHT22;18810;53.040;8.850;2023-04-24T17:58:09;8.30;99.90
32334;DHT22;18810;53.040;8.850;2023-04-24T18:00:35;8.30;99.90
32334;DHT22;18810;53.040;8.850;2023-04-24T18:03:02;8.30;99.90
32334;DHT22;18810;53.040;8.850;2023-04-24T18:05:33;8.30;99.90
32334;DHT22;18810;53.040;8.850;2023-04-24T18:08:00;8.40;99.90
32334;DHT22;18810;53.040;8.850;2023-04-24T18:10:29;8.30;99.90
32334;DHT22;18810;53.040;8.850;2023-04-24T18:12:56;8.30;99.90
32334;DHT22;18810;53.040;8.850;2023-04-24T18:15:22;8.30;99.90
32334;DHT22;18810;53.040;8.850;2023-04-24T18:17:48;8.10;99.90
32334;DHT22;18810;53.040;8.850;2023-04-24T18:20:15;8.20;99.90
32334;DHT22;18810;53.040;8.850;2023-04-24T18:22:42;8.30;99.90
32334;DHT22;18810;53.040;8.850;2023-04-24T18:25:08;8.30;99.90
32334;DHT22;18810;53.040;8.850;2023-04-24T18:27:35;8.30;99.90
32334;DHT22;18810;53.040;8.850;2023-04-24T18:30:01;8.30;99.90
32334;DHT22;18810;53.040;8.850;2023-04-24T18:32:27;8.40;99.90
32334;DHT22;18810;53.040;8.850;2023-04-24T18:34:53;8.40;99.90
32334;DHT22;18810;53.040;8.850;2023-04-24T18:37:18;8.40;99.90
32334;DHT22;18810;53.040;8.850;2023-04-24T18:39:44;8.50;99.90
32334;DHT22;18810;53.040;8.850;2023-04-24T18:42:10;8.50;99.90
32334;DHT22;18810;53.040;8.850;2023-04-24T18:44:35;8.40;99.90
32334;DHT22;18810;53.040;8.850;2023-04-24T18:47:06;8.60;99.90
32334;DHT22;18810;53.040;8.850;2023-04-24T18:49:32;8.50;99.90
32334;DHT22;18810;53.040;8.850;2023-04-24T18:51:57;8.50;99.90